sensor_id;sensor_type;location;lat;lon;timestamp;P1;durP1;ratioP1;P2;durP2;ratioP2
70505;SDS011;58032;49.820;6.274;2023-04-24T00:01:10;2.27;;;0.70;;
70505;SDS011;58032;49.820;6.274;2023-04-24T00:03:39;2.50;;;0.70;;
70505;SDS011;58032;49.820;6.274;2023-04-24T00:06:06;3.65;;;0.90;;
70505;SDS011;58032;49.820;6.274;2023-04-24T00:08:34;4.88;;;0.80;;
70505;SDS011;58032;49.820;6.274;2023-04-24T00:11:02;2.88;;;0.98;;
70505;SDS011;58032;49.820;6.274;2023-04-24T00:13:29;3.07;;;1.10;;
70505;SDS011;58032;49.820;6.274;2023-04-24T00:15:56;3.28;;;1.15;;
70505;SDS011;58032;49.820;6.274;2023-04-24T00:18:23;3.42;;;1.20;;
70505;SDS011;58032;49.820;6.274;2023-04-24T00:20:50;2.83;;;0.90;;
70505;SDS011;58032;49.820;6.274;2023-04-24T00:23:16;2.45;;;0.85;;
70505;SDS011;58032;49.820;6.274;2023-04-24T00:25:43;4.03;;;1.10;;
70505;SDS011;58032;49.820;6.274;2023-04-24T00:28:10;5.13;;;1.20;;
70505;SDS011;58032;49.820;6.274;2023-04-24T00:30:37;3.00;;;1.30;;
70505;SDS011;58032;49.820;6.274;2023-04-24T00:33:04;4.05;;;0.90;;
70505;SDS011;58032;49.820;6.274;2023-04-24T00:35:31;6.10;;;1.90;;
70505;SDS011;58032;49.820;6.274;2023-04-24T00:37:58;3.70;;;1.57;;
70505;SDS011;58032;49.820;6.274;2023-04-24T00:40:25;3.58;;;1.27;;
70505;SDS011;58032;49.820;6.274;2023-04-24T00:42:53;4.75;;;1.60;;
70505;SDS011;58032;49.820;6.274;2023-04-24T00:45:23;3.58;;;1.33;;
70505;SDS011;58032;49.820;6.274;2023-04-24T00:47:52;5.05;;;1.95;;
70505;SDS011;58032;49.820;6.274;2023-04-24T00:50:20;4.63;;;1.63;;
70505;SDS011;58032;49.820;6.274;2023-04-24T00:52:48;6.22;;;2.00;;
70505;SDS011;58032;49.820;6.274;2023-04-24T00:55:15;4.53;;;1.90;;
70505;SDS011;58032;49.820;6.274;2023-04-24T00:57:42;3.33;;;1.42;;
70505;SDS011;58032;49.820;6.274;2023-04-24T01:00:10;4.57;;;2.20;;
70505;SDS011;58032;49.820;6.274;2023-04-24T01:02:39;4.37;;;1.67;;
70505;SDS011;58032;49.820;6.274;2023-04-24T01:05:11;6.30;;;2.67;;
70505;SDS011;58032;49.820;6.274;2023-04-24T01:07:40;7.25;;;2.75;;
70505;SDS011;58032;49.820;6.274;2023-04-24T01:10:11;4.10;;;1.80;;
70505;SDS011;58032;49.820;6.274;2023-04-24T01:12:44;5.85;;;2.78;;
70505;SDS011;58032;49.820;6.274;2023-04-24T01:15:11;6.50;;;2.67;;
70505;SDS011;58032;49.820;6.274;2023-04-24T01:17:38;6.13;;;2.72;;
70505;SDS011;58032;49.820;6.274;2023-04-24T01:20:05;6.20;;;2.25;;
70505;SDS011;58032;49.820;6.274;2023-04-24T01:22:33;5.72;;;2.67;;
70505;SDS011;58032;49.820;6.274;2023-04-24T01:25:01;5.65;;;2.55;;
70505;SDS011;58032;49.820;6.274;2023-04-24T01:27:29;4.63;;;1.67;;
70505;SDS011;58032;49.820;6.274;2023-04-24T01:29:56;5.65;;;2.40;;
70505;SDS011;58032;49.820;6.274;2023-04-24T01:32:24;6.30;;;2.90;;
70505;SDS011;58032;49.820;6.274;2023-04-24T01:34:51;5.80;;;2.60;;
70505;SDS011;58032;49.820;6.274;2023-04-24T01:37:18;5.57;;;2.53;;
70505;SDS011;58032;49.820;6.274;2023-04-24T01:39:45;5.20;;;2.17;;
70505;SDS011;58032;49.820;6.274;2023-04-24T01:42:12;5.22;;;2.60;;
70505;SDS011;58032;49.820;6.274;2023-04-24T01:44:40;6.78;;;2.47;;
70505;SDS011;58032;49.820;6.274;2023-04-24T01:47:08;7.63;;;3.20;;
70505;SDS011;58032;49.820;6.274;2023-04-24T01:49:35;5.43;;;2.50;;
70505;SDS011;58032;49.820;6.274;2023-04-24T01:52:04;6.73;;;2.97;;
70505;SDS011;58032;49.820;6.274;2023-04-24T01:54:31;5.78;;;2.63;;
70505;SDS011;58032;49.820;6.274;2023-04-24T01:56:58;6.15;;;2.88;;
70505;SDS011;58032;49.820;6.274;2023-04-24T01:59:26;7.72;;;2.92;;
70505;SDS011;58032;49.820;6.274;2023-04-24T02:01:54;6.95;;;3.42;;
70505;SDS011;58032;49.820;6.274;2023-04-24T02:04:21;8.33;;;3.13;;
70505;SDS011;58032;49.820;6.274;2023-04-24T02:06:48;10.13;;;3.88;;
70505;SDS011;58032;49.820;6.274;2023-04-24T02:09:15;8.98;;;3.63;;
70505;SDS011;58032;49.820;6.274;2023-04-24T02:11:42;7.90;;;3.53;;
70505;SDS011;58032;49.820;6.274;2023-04-24T02:14:09;7.03;;;3.60;;
70505;SDS011;58032;49.820;6.274;2023-04-24T02:16:39;8.30;;;3.60;;
70505;SDS011;58032;49.820;6.274;2023-04-24T02:19:06;9.63;;;3.88;;
70505;SDS011;58032;49.820;6.274;2023-04-24T02:21:33;13.63;;;4.22;;
70505;SDS011;58032;49.820;6.274;2023-04-24T02:24:00;9.55;;;4.55;;
70505;SDS011;58032;49.820;6.274;2023-04-24T02:26:27;8.23;;;4.00;;
70505;SDS011;58032;49.820;6.274;2023-04-24T02:28:54;7.90;;;3.93;;
70505;SDS011;58032;49.820;6.274;2023-04-24T02:31:21;7.57;;;3.53;;
70505;SDS011;58032;49.820;6.274;2023-04-24T02:33:48;9.82;;;3.92;;
70505;SDS011;58032;49.820;6.274;2023-04-24T02:36:15;8.18;;;3.67;;
70505;SDS011;58032;49.820;6.274;2023-04-24T02:38:42;8.65;;;4.18;;
70505;SDS011;58032;49.820;6.274;2023-04-24T02:41:09;9.33;;;3.97;;
70505;SDS011;58032;49.820;6.274;2023-04-24T02:43:36;9.80;;;4.15;;
70505;SDS011;58032;49.820;6.274;2023-04-24T02:46:03;10.80;;;4.22;;
70505;SDS011;58032;49.820;6.274;2023-04-24T02:48:30;8.75;;;3.92;;
70505;SDS011;58032;49.820;6.274;2023-04-24T02:50:56;10.02;;;4.05;;
70505;SDS011;58032;49.820;6.274;2023-04-24T02:53:24;11.17;;;3.83;;
70505;SDS011;58032;49.820;6.274;2023-04-24T02:55:51;6.30;;;2.85;;
70505;SDS011;58032;49.820;6.274;2023-04-24T02:58:18;9.15;;;4.18;;
70505;SDS011;58032;49.820;6.274;2023-04-24T03:00:46;8.52;;;4.07;;
70505;SDS011;58032;49.820;6.274;2023-04-24T03:03:14;11.05;;;4.88;;
70505;SDS011;58032;49.820;6.274;2023-04-24T03:05:41;8.80;;;4.60;;
70505;SDS011;58032;49.820;6.274;2023-04-24T03:08:08;13.80;;;4.93;;
70505;SDS011;58032;49.820;6.274;2023-04-24T03:10:35;11.98;;;4.50;;
70505;SDS011;58032;49.820;6.274;2023-04-24T03:13:02;10.25;;;5.03;;
70505;SDS011;58032;49.820;6.274;2023-04-24T03:15:29;9.57;;;5.05;;
70505;SDS011;58032;49.820;6.274;2023-04-24T03:17:55;12.00;;;5.13;;
70505;SDS011;58032;49.820;6.274;2023-04-24T03:20:23;12.23;;;5.22;;
70505;SDS011;58032;49.820;6.274;2023-04-24T03:22:50;10.98;;;5.53;;
70505;SDS011;58032;49.820;6.274;2023-04-24T03:25:17;12.15;;;5.30;;
70505;SDS011;58032;49.820;6.274;2023-04-24T03:27:44;12.32;;;5.82;;
70505;SDS011;58032;49.820;6.274;2023-04-24T03:30:25;14.77;;;6.17;;
70505;SDS011;58032;49.820;6.274;2023-04-24T03:32:56;15.65;;;5.60;;
70505;SDS011;58032;49.820;6.274;2023-04-24T03:35:27;11.35;;;5.45;;
70505;SDS011;58032;49.820;6.274;2023-04-24T03:37:59;14.07;;;5.55;;
70505;SDS011;58032;49.820;6.274;2023-04-24T03:40:41;13.82;;;6.47;;
70505;SDS011;58032;49.820;6.274;2023-04-24T03:43:23;14.30;;;5.83;;
70505;SDS011;58032;49.820;6.274;2023-04-24T03:45:50;12.43;;;5.60;;
70505;SDS011;58032;49.820;6.274;2023-04-24T03:48:18;14.52;;;6.53;;
70505;SDS011;58032;49.820;6.274;2023-04-24T03:50:45;13.02;;;6.38;;
70505;SDS011;58032;49.820;6.274;2023-04-24T03:53:12;12.23;;;5.97;;
70505;SDS011;58032;49.820;6.274;2023-04-24T03:55:41;13.90;;;5.63;;
70505;SDS011;58032;49.820;6.274;2023-04-24T03:58:08;12.32;;;6.63;;
70505;SDS011;58032;49.820;6.274;2023-04-24T04:00:35;11.18;;;4.72;;
70505;SDS011;58032;49.820;6.274;2023-04-24T04:03:22;11.70;;;6.00;;
70505;SDS011;58032;49.820;6.274;2023-04-24T04:05:49;11.55;;;6.10;;
70505;SDS011;58032;49.820;6.274;2023-04-24T04:08:16;10.87;;;5.50;;
70505;SDS011;58032;49.820;6.274;2023-04-24T04:10:43;10.93;;;5.35;;
70505;SDS011;58032;49.820;6.274;2023-04-24T04:13:10;12.15;;;6.07;;
70505;SDS011;58032;49.820;6.274;2023-04-24T04:15:37;12.98;;;6.43;;
70505;SDS011;58032;49.820;6.274;2023-04-24T04:18:04;12.00;;;6.07;;
70505;SDS011;58032;49.820;6.274;2023-04-24T04:20:32;8.33;;;3.77;;
70505;SDS011;58032;49.820;6.274;2023-04-24T04:22:59;10.48;;;4.75;;
70505;SDS011;58032;49.820;6.274;2023-04-24T04:25:38;10.02;;;5.05;;
70505;SDS011;58032;49.820;6.274;2023-04-24T04:28:05;12.50;;;5.93;;
70505;SDS011;58032;49.820;6.274;2023-04-24T04:30:32;10.13;;;5.13;;
70505;SDS011;58032;49.820;6.274;2023-04-24T04:33:02;10.10;;;4.80;;
70505;SDS011;58032;49.820;6.274;2023-04-24T04:35:30;11.23;;;5.22;;
70505;SDS011;58032;49.820;6.274;2023-04-24T04:37:58;10.05;;;4.80;;
70505;SDS011;58032;49.820;6.274;2023-04-24T04:40:40;12.57;;;5.45;;
70505;SDS011;58032;49.820;6.274;2023-04-24T04:43:07;10.95;;;4.80;;
70505;SDS011;58032;49.820;6.274;2023-04-24T04:45:41;8.33;;;4.37;;
70505;SDS011;58032;49.820;6.274;2023-04-24T04:48:24;9.55;;;4.93;;
70505;SDS011;58032;49.820;6.274;2023-04-24T04:50:51;10.70;;;5.10;;
70505;SDS011;58032;49.820;6.274;2023-04-24T04:53:20;11.23;;;4.70;;
70505;SDS011;58032;49.820;6.274;2023-04-24T04:55:47;6.85;;;3.40;;
70505;SDS011;58032;49.820;6.274;2023-04-24T04:58:15;10.00;;;4.17;;
70505;SDS011;58032;49.820;6.274;2023-04-24T05:00:44;7.78;;;4.18;;
70505;SDS011;58032;49.820;6.274;2023-04-24T05:03:16;7.45;;;3.08;;
70505;SDS011;58032;49.820;6.274;2023-04-24T05:05:47;7.93;;;3.15;;
70505;SDS011;58032;49.820;6.274;2023-04-24T05:08:17;7.53;;;3.15;;
70505;SDS011;58032;49.820;6.274;2023-04-24T05:10:52;9.07;;;2.93;;
70505;SDS011;58032;49.820;6.274;2023-04-24T05:13:19;8.15;;;3.38;;
70505;SDS011;58032;49.820;6.274;2023-04-24T05:15:49;7.85;;;3.85;;
70505;SDS011;58032;49.820;6.274;2023-04-24T05:18:16;5.97;;;2.90;;
70505;SDS011;58032;49.820;6.274;2023-04-24T05:20:43;8.60;;;3.80;;
70505;SDS011;58032;49.820;6.274;2023-04-24T05:23:13;7.20;;;3.47;;
70505;SDS011;58032;49.820;6.274;2023-04-24T05:25:42;5.95;;;3.05;;
70505;SDS011;58032;49.820;6.274;2023-04-24T05:28:11;8.82;;;3.28;;
70505;SDS011;58032;49.820;6.274;2023-04-24T05:30:38;6.80;;;3.40;;
70505;SDS011;58032;49.820;6.274;2023-04-24T05:33:05;6.97;;;3.40;;
70505;SDS011;58032;49.820;6.274;2023-04-24T05:35:34;6.40;;;3.03;;
70505;SDS011;58032;49.820;6.274;2023-04-24T05:38:01;7.95;;;3.60;;
70505;SDS011;58032;49.820;6.274;2023-04-24T05:40:28;6.78;;;3.58;;
70505;SDS011;58032;49.820;6.274;2023-04-24T05:42:55;7.90;;;3.90;;
70505;SDS011;58032;49.820;6.274;2023-04-24T05:45:23;8.38;;;3.70;;
70505;SDS011;58032;49.820;6.274;2023-04-24T05:47:50;8.73;;;3.60;;
70505;SDS011;58032;49.820;6.274;2023-04-24T05:50:18;6.32;;;2.80;;
70505;SDS011;58032;49.820;6.274;2023-04-24T05:52:46;8.93;;;4.00;;
70505;SDS011;58032;49.820;6.274;2023-04-24T05:55:33;7.38;;;3.78;;
70505;SDS011;58032;49.820;6.274;2023-04-24T05:58:00;7.78;;;4.03;;
70505;SDS011;58032;49.820;6.274;2023-04-24T06:00:28;8.40;;;3.43;;
70505;SDS011;58032;49.820;6.274;2023-04-24T06:03:01;7.93;;;3.60;;
70505;SDS011;58032;49.820;6.274;2023-04-24T06:05:30;7.10;;;3.65;;
70505;SDS011;58032;49.820;6.274;2023-04-24T06:07:57;7.15;;;3.33;;
70505;SDS011;58032;49.820;6.274;2023-04-24T06:10:28;8.32;;;4.03;;
70505;SDS011;58032;49.820;6.274;2023-04-24T06:12:55;6.97;;;3.43;;
70505;SDS011;58032;49.820;6.274;2023-04-24T06:15:28;10.13;;;4.40;;
70505;SDS011;58032;49.820;6.274;2023-04-24T06:18:08;8.25;;;4.30;;
70505;SDS011;58032;49.820;6.274;2023-04-24T06:20:38;9.23;;;4.40;;
70505;SDS011;58032;49.820;6.274;2023-04-24T06:23:07;7.20;;;3.92;;
70505;SDS011;58032;49.820;6.274;2023-04-24T06:25:34;7.60;;;3.97;;
70505;SDS011;58032;49.820;6.274;2023-04-24T06:28:01;9.05;;;4.15;;
70505;SDS011;58032;49.820;6.274;2023-04-24T06:30:30;6.20;;;3.03;;
70505;SDS011;58032;49.820;6.274;2023-04-24T06:32:57;9.48;;;4.47;;
70505;SDS011;58032;49.820;6.274;2023-04-24T06:35:28;8.60;;;4.63;;
70505;SDS011;58032;49.820;6.274;2023-04-24T06:37:55;8.17;;;3.13;;
70505;SDS011;58032;49.820;6.274;2023-04-24T06:40:22;9.88;;;3.95;;
70505;SDS011;58032;49.820;6.274;2023-04-24T06:42:49;8.70;;;4.15;;
70505;SDS011;58032;49.820;6.274;2023-04-24T06:45:16;8.30;;;3.92;;
70505;SDS011;58032;49.820;6.274;2023-04-24T06:47:43;11.10;;;4.43;;
70505;SDS011;58032;49.820;6.274;2023-04-24T06:50:10;7.47;;;4.20;;
70505;SDS011;58032;49.820;6.274;2023-04-24T06:52:38;6.97;;;3.40;;
70505;SDS011;58032;49.820;6.274;2023-04-24T06:55:05;7.57;;;3.22;;
70505;SDS011;58032;49.820;6.274;2023-04-24T06:57:32;9.60;;;4.40;;
70505;SDS011;58032;49.820;6.274;2023-04-24T06:59:59;10.50;;;4.20;;
70505;SDS011;58032;49.820;6.274;2023-04-24T07:02:26;8.33;;;4.07;;
70505;SDS011;58032;49.820;6.274;2023-04-24T07:04:53;9.43;;;3.75;;
70505;SDS011;58032;49.820;6.274;2023-04-24T07:07:20;8.30;;;3.38;;
70505;SDS011;58032;49.820;6.274;2023-04-24T07:09:47;8.13;;;3.63;;
70505;SDS011;58032;49.820;6.274;2023-04-24T07:12:15;8.20;;;3.55;;
70505;SDS011;58032;49.820;6.274;2023-04-24T07:14:43;6.50;;;3.40;;
70505;SDS011;58032;49.820;6.274;2023-04-24T07:17:10;9.20;;;3.20;;
70505;SDS011;58032;49.820;6.274;2023-04-24T07:19:39;8.85;;;3.28;;
70505;SDS011;58032;49.820;6.274;2023-04-24T07:22:05;5.65;;;2.60;;
70505;SDS011;58032;49.820;6.274;2023-04-24T07:24:32;6.03;;;2.85;;
70505;SDS011;58032;49.820;6.274;2023-04-24T07:26:59;6.00;;;2.87;;
70505;SDS011;58032;49.820;6.274;2023-04-24T07:29:29;6.90;;;2.67;;
70505;SDS011;58032;49.820;6.274;2023-04-24T07:31:56;7.13;;;3.03;;
70505;SDS011;58032;49.820;6.274;2023-04-24T07:34:23;6.60;;;2.60;;
70505;SDS011;58032;49.820;6.274;2023-04-24T07:36:50;7.25;;;2.60;;
70505;SDS011;58032;49.820;6.274;2023-04-24T07:39:17;6.03;;;2.80;;
70505;SDS011;58032;49.820;6.274;2023-04-24T07:41:44;5.57;;;2.90;;
70505;SDS011;58032;49.820;6.274;2023-04-24T07:44:11;5.47;;;2.28;;
70505;SDS011;58032;49.820;6.274;2023-04-24T07:46:38;6.30;;;2.72;;
70505;SDS011;58032;49.820;6.274;2023-04-24T07:49:05;7.18;;;3.00;;
70505;SDS011;58032;49.820;6.274;2023-04-24T07:51:38;6.63;;;2.90;;
70505;SDS011;58032;49.820;6.274;2023-04-24T07:54:05;6.90;;;2.60;;
70505;SDS011;58032;49.820;6.274;2023-04-24T07:56:33;5.03;;;1.90;;
70505;SDS011;58032;49.820;6.274;2023-04-24T07:59:00;9.48;;;3.78;;
70505;SDS011;58032;49.820;6.274;2023-04-24T08:01:27;4.47;;;2.28;;
70505;SDS011;58032;49.820;6.274;2023-04-24T08:03:54;8.77;;;4.07;;
70505;SDS011;58032;49.820;6.274;2023-04-24T08:06:22;6.97;;;3.42;;
70505;SDS011;58032;49.820;6.274;2023-04-24T08:08:49;8.68;;;3.00;;
70505;SDS011;58032;49.820;6.274;2023-04-24T08:11:16;8.30;;;3.80;;
70505;SDS011;58032;49.820;6.274;2023-04-24T08:13:43;8.65;;;4.15;;
70505;SDS011;58032;49.820;6.274;2023-04-24T08:16:10;9.30;;;4.27;;
70505;SDS011;58032;49.820;6.274;2023-04-24T08:18:37;8.95;;;4.05;;
70505;SDS011;58032;49.820;6.274;2023-04-24T08:21:03;9.10;;;4.25;;
70505;SDS011;58032;49.820;6.274;2023-04-24T08:23:31;7.82;;;3.92;;
70505;SDS011;58032;49.820;6.274;2023-04-24T08:25:58;8.13;;;3.45;;
70505;SDS011;58032;49.820;6.274;2023-04-24T08:28:24;7.47;;;3.40;;
70505;SDS011;58032;49.820;6.274;2023-04-24T08:30:51;8.63;;;3.90;;
70505;SDS011;58032;49.820;6.274;2023-04-24T08:33:22;7.45;;;3.58;;
70505;SDS011;58032;49.820;6.274;2023-04-24T08:35:49;8.82;;;3.25;;
70505;SDS011;58032;49.820;6.274;2023-04-24T08:38:16;9.30;;;3.92;;
70505;SDS011;58032;49.820;6.274;2023-04-24T08:40:44;7.93;;;3.27;;
70505;SDS011;58032;49.820;6.274;2023-04-24T08:43:12;9.02;;;4.07;;
70505;SDS011;58032;49.820;6.274;2023-04-24T08:45:40;9.32;;;4.05;;
70505;SDS011;58032;49.820;6.274;2023-04-24T08:48:07;9.10;;;3.73;;
70505;SDS011;58032;49.820;6.274;2023-04-24T08:50:40;9.63;;;4.05;;
70505;SDS011;58032;49.820;6.274;2023-04-24T08:53:09;10.98;;;4.07;;
70505;SDS011;58032;49.820;6.274;2023-04-24T08:55:37;8.18;;;3.83;;
70505;SDS011;58032;49.820;6.274;2023-04-24T08:58:04;9.30;;;4.63;;
70505;SDS011;58032;49.820;6.274;2023-04-24T09:00:31;11.27;;;4.70;;
70505;SDS011;58032;49.820;6.274;2023-04-24T09:02:59;9.50;;;4.18;;
70505;SDS011;58032;49.820;6.274;2023-04-24T09:05:27;9.85;;;4.90;;
70505;SDS011;58032;49.820;6.274;2023-04-24T09:07:55;11.05;;;5.15;;
70505;SDS011;58032;49.820;6.274;2023-04-24T09:10:23;10.75;;;5.47;;
70505;SDS011;58032;49.820;6.274;2023-04-24T09:12:51;11.43;;;5.17;;
70505;SDS011;58032;49.820;6.274;2023-04-24T09:15:19;10.73;;;5.60;;
70505;SDS011;58032;49.820;6.274;2023-04-24T09:17:47;10.68;;;5.50;;
70505;SDS011;58032;49.820;6.274;2023-04-24T09:20:14;9.32;;;5.40;;
70505;SDS011;58032;49.820;6.274;2023-04-24T09:22:41;7.75;;;3.78;;
70505;SDS011;58032;49.820;6.274;2023-04-24T09:25:09;10.70;;;5.23;;
70505;SDS011;58032;49.820;6.274;2023-04-24T09:27:45;9.05;;;4.70;;
70505;SDS011;58032;49.820;6.274;2023-04-24T09:30:12;8.40;;;4.30;;
70505;SDS011;58032;49.820;6.274;2023-04-24T09:32:40;9.65;;;4.75;;
70505;SDS011;58032;49.820;6.274;2023-04-24T09:35:12;9.55;;;4.95;;
70505;SDS011;58032;49.820;6.274;2023-04-24T09:37:41;13.10;;;5.47;;
70505;SDS011;58032;49.820;6.274;2023-04-24T09:42:54;10.05;;;4.80;;
70505;SDS011;58032;49.820;6.274;2023-04-24T09:45:36;8.70;;;3.78;;
70505;SDS011;58032;49.820;6.274;2023-04-24T09:48:04;8.30;;;3.53;;
70505;SDS011;58032;49.820;6.274;2023-04-24T09:50:32;9.48;;;4.13;;
70505;SDS011;58032;49.820;6.274;2023-04-24T09:53:04;8.95;;;4.53;;
70505;SDS011;58032;49.820;6.274;2023-04-24T09:55:38;5.75;;;2.92;;
70505;SDS011;58032;49.820;6.274;2023-04-24T09:58:11;6.78;;;3.35;;
70505;SDS011;58032;49.820;6.274;2023-04-24T10:00:38;7.43;;;3.92;;
70505;SDS011;58032;49.820;6.274;2023-04-24T10:03:05;32.03;;;16.08;;
70505;SDS011;58032;49.820;6.274;2023-04-24T10:05:36;13.70;;;6.20;;
70505;SDS011;58032;49.820;6.274;2023-04-24T10:08:07;10.00;;;4.65;;
70505;SDS011;58032;49.820;6.274;2023-04-24T10:10:38;8.07;;;3.08;;
70505;SDS011;58032;49.820;6.274;2023-04-24T10:13:10;9.90;;;3.83;;
70505;SDS011;58032;49.820;6.274;2023-04-24T10:15:38;10.10;;;4.35;;
70505;SDS011;58032;49.820;6.274;2023-04-24T10:18:07;9.82;;;4.00;;
70505;SDS011;58032;49.820;6.274;2023-04-24T10:20:35;14.70;;;4.85;;
70505;SDS011;58032;49.820;6.274;2023-04-24T10:23:04;7.68;;;3.20;;
70505;SDS011;58032;49.820;6.274;2023-04-24T10:25:32;10.73;;;3.63;;
70505;SDS011;58032;49.820;6.274;2023-04-24T10:28:01;7.30;;;2.93;;
70505;SDS011;58032;49.820;6.274;2023-04-24T10:30:30;6.47;;;3.05;;
70505;SDS011;58032;49.820;6.274;2023-04-24T10:33:05;6.40;;;2.80;;
70505;SDS011;58032;49.820;6.274;2023-04-24T10:35:36;9.38;;;2.60;;
70505;SDS011;58032;49.820;6.274;2023-04-24T10:38:07;6.55;;;2.55;;
70505;SDS011;58032;49.820;6.274;2023-04-24T10:40:37;8.30;;;3.53;;
70505;SDS011;58032;49.820;6.274;2023-04-24T10:43:05;6.70;;;2.78;;
70505;SDS011;58032;49.820;6.274;2023-04-24T10:45:34;7.22;;;2.92;;
70505;SDS011;58032;49.820;6.274;2023-04-24T10:48:05;6.20;;;2.28;;
70505;SDS011;58032;49.820;6.274;2023-04-24T10:53:15;7.38;;;3.30;;
70505;SDS011;58032;49.820;6.274;2023-04-24T10:55:47;5.90;;;3.00;;
70505;SDS011;58032;49.820;6.274;2023-04-24T10:58:17;8.68;;;3.08;;
70505;SDS011;58032;49.820;6.274;2023-04-24T11:00:58;8.23;;;2.55;;
70505;SDS011;58032;49.820;6.274;2023-04-24T11:03:27;5.40;;;2.53;;
70505;SDS011;58032;49.820;6.274;2023-04-24T11:06:00;4.20;;;1.55;;
70505;SDS011;58032;49.820;6.274;2023-04-24T11:08:31;6.57;;;2.55;;
70505;SDS011;58032;49.820;6.274;2023-04-24T11:11:03;6.63;;;2.83;;
70505;SDS011;58032;49.820;6.274;2023-04-24T11:16:24;6.20;;;2.67;;
70505;SDS011;58032;49.820;6.274;2023-04-24T11:19:08;8.87;;;3.33;;
70505;SDS011;58032;49.820;6.274;2023-04-24T11:21:44;6.93;;;3.25;;
70505;SDS011;58032;49.820;6.274;2023-04-24T11:27:09;4.82;;;2.33;;
70505;SDS011;58032;49.820;6.274;2023-04-24T11:29:45;7.28;;;2.92;;
70505;SDS011;58032;49.820;6.274;2023-04-24T11:35:17;4.55;;;1.85;;
70505;SDS011;58032;49.820;6.274;2023-04-24T11:37:46;3.60;;;1.45;;
70505;SDS011;58032;49.820;6.274;2023-04-24T11:40:20;7.03;;;3.08;;
70505;SDS011;58032;49.820;6.274;2023-04-24T11:42:52;8.48;;;3.92;;
70505;SDS011;58032;49.820;6.274;2023-04-24T11:45:23;6.63;;;3.45;;
70505;SDS011;58032;49.820;6.274;2023-04-24T11:47:52;8.30;;;4.28;;
70505;SDS011;58032;49.820;6.274;2023-04-24T11:50:21;9.75;;;5.05;;
70505;SDS011;58032;49.820;6.274;2023-04-24T11:52:49;9.40;;;4.38;;
70505;SDS011;58032;49.820;6.274;2023-04-24T11:57:50;7.13;;;3.97;;
70505;SDS011;58032;49.820;6.274;2023-04-24T12:00:20;9.52;;;4.25;;
70505;SDS011;58032;49.820;6.274;2023-04-24T12:02:51;10.07;;;4.78;;
70505;SDS011;58032;49.820;6.274;2023-04-24T12:05:30;9.25;;;4.28;;
70505;SDS011;58032;49.820;6.274;2023-04-24T12:07:59;9.38;;;4.25;;
70505;SDS011;58032;49.820;6.274;2023-04-24T12:10:27;10.87;;;4.70;;
70505;SDS011;58032;49.820;6.274;2023-04-24T12:12:56;10.55;;;4.18;;
70505;SDS011;58032;49.820;6.274;2023-04-24T12:15:24;10.85;;;4.72;;
70505;SDS011;58032;49.820;6.274;2023-04-24T12:17:51;12.00;;;4.22;;
70505;SDS011;58032;49.820;6.274;2023-04-24T12:20:23;9.27;;;4.03;;
70505;SDS011;58032;49.820;6.274;2023-04-24T12:22:54;13.43;;;3.40;;
70505;SDS011;58032;49.820;6.274;2023-04-24T12:25:22;7.78;;;3.35;;
70505;SDS011;58032;49.820;6.274;2023-04-24T12:30:31;5.95;;;2.80;;
70505;SDS011;58032;49.820;6.274;2023-04-24T12:32:59;4.95;;;1.90;;
70505;SDS011;58032;49.820;6.274;2023-04-24T12:35:27;6.20;;;2.83;;
70505;SDS011;58032;49.820;6.274;2023-04-24T12:37:55;7.18;;;3.58;;
70505;SDS011;58032;49.820;6.274;2023-04-24T12:40:22;8.38;;;4.30;;
70505;SDS011;58032;49.820;6.274;2023-04-24T12:42:51;8.07;;;4.10;;
70505;SDS011;58032;49.820;6.274;2023-04-24T12:45:19;9.30;;;4.38;;
70505;SDS011;58032;49.820;6.274;2023-04-24T12:47:46;11.30;;;4.80;;
70505;SDS011;58032;49.820;6.274;2023-04-24T12:50:14;10.25;;;4.78;;
70505;SDS011;58032;49.820;6.274;2023-04-24T12:52:42;10.90;;;4.70;;
70505;SDS011;58032;49.820;6.274;2023-04-24T12:55:09;10.73;;;4.80;;
70505;SDS011;58032;49.820;6.274;2023-04-24T12:57:38;8.38;;;4.80;;
70505;SDS011;58032;49.820;6.274;2023-04-24T13:00:06;9.98;;;4.68;;
70505;SDS011;58032;49.820;6.274;2023-04-24T13:02:34;8.05;;;4.28;;
70505;SDS011;58032;49.820;6.274;2023-04-24T13:05:02;9.60;;;4.78;;
70505;SDS011;58032;49.820;6.274;2023-04-24T13:07:30;8.82;;;4.25;;
70505;SDS011;58032;49.820;6.274;2023-04-24T13:09:57;8.98;;;4.07;;
70505;SDS011;58032;49.820;6.274;2023-04-24T13:12:24;6.35;;;3.13;;
70505;SDS011;58032;49.820;6.274;2023-04-24T13:14:53;8.27;;;4.05;;
70505;SDS011;58032;49.820;6.274;2023-04-24T13:17:20;8.88;;;4.07;;
70505;SDS011;58032;49.820;6.274;2023-04-24T13:19:48;7.20;;;3.13;;
70505;SDS011;58032;49.820;6.274;2023-04-24T13:22:16;6.47;;;3.65;;
70505;SDS011;58032;49.820;6.274;2023-04-24T13:24:45;6.97;;;3.10;;
70505;SDS011;58032;49.820;6.274;2023-04-24T13:27:15;7.63;;;3.30;;
70505;SDS011;58032;49.820;6.274;2023-04-24T13:29:42;6.70;;;3.38;;
70505;SDS011;58032;49.820;6.274;2023-04-24T13:32:09;7.60;;;3.67;;
70505;SDS011;58032;49.820;6.274;2023-04-24T13:34:36;8.48;;;3.42;;
70505;SDS011;58032;49.820;6.274;2023-04-24T13:37:03;5.90;;;2.88;;
70505;SDS011;58032;49.820;6.274;2023-04-24T13:39:30;5.75;;;3.20;;
70505;SDS011;58032;49.820;6.274;2023-04-24T13:41:58;7.28;;;3.80;;
70505;SDS011;58032;49.820;6.274;2023-04-24T13:44:25;3.55;;;1.42;;
70505;SDS011;58032;49.820;6.274;2023-04-24T13:46:54;5.18;;;2.55;;
70505;SDS011;58032;49.820;6.274;2023-04-24T13:49:23;7.45;;;2.97;;
70505;SDS011;58032;49.820;6.274;2023-04-24T13:51:54;5.53;;;3.28;;
70505;SDS011;58032;49.820;6.274;2023-04-24T13:54:22;8.45;;;3.63;;
70505;SDS011;58032;49.820;6.274;2023-04-24T13:56:52;7.63;;;3.80;;
70505;SDS011;58032;49.820;6.274;2023-04-24T13:59:21;7.25;;;3.83;;
70505;SDS011;58032;49.820;6.274;2023-04-24T14:01:48;6.68;;;3.85;;
70505;SDS011;58032;49.820;6.274;2023-04-24T14:04:15;7.35;;;4.07;;
70505;SDS011;58032;49.820;6.274;2023-04-24T14:06:43;12.10;;;4.50;;
70505;SDS011;58032;49.820;6.274;2023-04-24T14:09:10;8.65;;;4.18;;
70505;SDS011;58032;49.820;6.274;2023-04-24T14:11:37;8.35;;;4.32;;
70505;SDS011;58032;49.820;6.274;2023-04-24T14:14:04;9.18;;;4.50;;
70505;SDS011;58032;49.820;6.274;2023-04-24T14:16:32;7.47;;;4.35;;
70505;SDS011;58032;49.820;6.274;2023-04-24T14:18:58;9.88;;;4.65;;
70505;SDS011;58032;49.820;6.274;2023-04-24T14:21:25;7.68;;;4.10;;
70505;SDS011;58032;49.820;6.274;2023-04-24T14:23:52;10.13;;;4.22;;
70505;SDS011;58032;49.820;6.274;2023-04-24T14:26:19;9.52;;;4.90;;
70505;SDS011;58032;49.820;6.274;2023-04-24T14:28:46;8.20;;;4.50;;
70505;SDS011;58032;49.820;6.274;2023-04-24T14:31:13;9.10;;;4.75;;
70505;SDS011;58032;49.820;6.274;2023-04-24T14:33:40;9.23;;;4.90;;
70505;SDS011;58032;49.820;6.274;2023-04-24T14:36:06;9.82;;;5.10;;
70505;SDS011;58032;49.820;6.274;2023-04-24T14:38:33;10.10;;;4.88;;
70505;SDS011;58032;49.820;6.274;2023-04-24T14:41:01;10.27;;;5.30;;
70505;SDS011;58032;49.820;6.274;2023-04-24T14:43:35;8.88;;;4.85;;
70505;SDS011;58032;49.820;6.274;2023-04-24T14:46:03;9.18;;;4.75;;
70505;SDS011;58032;49.820;6.274;2023-04-24T14:48:30;8.40;;;5.43;;
70505;SDS011;58032;49.820;6.274;2023-04-24T14:50:57;12.65;;;5.63;;
70505;SDS011;58032;49.820;6.274;2023-04-24T14:53:24;9.32;;;5.18;;
70505;SDS011;58032;49.820;6.274;2023-04-24T14:55:51;10.98;;;5.28;;
70505;SDS011;58032;49.820;6.274;2023-04-24T14:58:18;9.40;;;5.35;;
70505;SDS011;58032;49.820;6.274;2023-04-24T15:00:46;9.10;;;5.35;;
70505;SDS011;58032;49.820;6.274;2023-04-24T15:03:18;10.85;;;5.30;;
70505;SDS011;58032;49.820;6.274;2023-04-24T15:05:45;9.88;;;5.55;;
70505;SDS011;58032;49.820;6.274;2023-04-24T15:08:12;7.05;;;3.67;;
70505;SDS011;58032;49.820;6.274;2023-04-24T15:10:39;6.85;;;3.85;;
70505;SDS011;58032;49.820;6.274;2023-04-24T15:13:06;8.20;;;3.38;;